Weather at Beechworth Airport

Public forecast

Using degrees Celsius for public forecast. Weather courtesy of forecast.io.

Closest aviation weather report (METAR) to Beechworth Airport

Closest report is Cobar Airport, 63.5 nm (117.6 km) ENE. Retrieved 2020/10/28 01:00 UTC (45 minutes ago):

YCBA 280100Z AUTO 32004KT 9999 // ////// 24/03 Q1013

Closest aviation forecast (TAF) to Beechworth Airport

Closest forecast is Dubbo City Regional Airport, 201.4 nm (372.9 km) E. Retrieved 2020-10-28 23:36 UTC (0 seconds ago):

TAF TAF YSDU 272322Z 2723/2818 22005KT 9999 -SHRA SCT020 FM281300 11008KT 9999 NSW SCT010 INTER 2723/2810 5000 SHRA BKN010 TEMPO 2723/2810 VRB20G40KT 2000 TSRA BKN010 SCT040CB